Time;durP1;ratioP1;P1;durP2;ratioP2;P2;SDS_P1;SDS_P2;PMS_P1;PMS_P2;Temp;Humidity;BMP_temperature;BMP_pressure;BME280_temperature;BME280_humidity;BME280_pressure;Samples;Min_cycle;Max_cycle;Signal;HPM_P1;HPM_P2
2022/01/05 00:02:25;;;;;;;6.40;1.90;;;;;;;;;;5054229;28;20049;-59
2022/01/05 00:04:53;;;;;;;5.25;1.60;;;;;;;;;;5053507;28;20411;-59
2022/01/05 00:07:19;;;;;;;6.88;2.15;;;;;;;;;;5053156;28;20048;-59
2022/01/05 00:09:45;;;;;;;5.93;1.65;;;;;;;;;;5053053;28;20076;-59
2022/01/05 00:12:12;;;;;;;5.63;1.77;;;;;;;;;;5053766;28;20091;-59
2022/01/05 00:14:38;;;;;;;6.35;2.08;;;;;;;;;;5052679;28;20477;-59
2022/01/05 00:17:04;;;;;;;6.78;2.17;;;;;;;;;;5053346;28;20072;-59
2022/01/05 00:19:32;;;;;;;5.00;1.92;;;;;;;;;;5052840;28;20045;-60
2022/01/05 00:21:59;;;;;;;6.57;2.17;;;;;;;;;;5053375;28;20726;-59
2022/01/05 00:24:25;;;;;;;8.02;1.98;;;;;;;;;;5053198;28;20099;-59
2022/01/05 00:26:52;;;;;;;7.80;2.00;;;;;;;;;;5052560;28;20045;-59
2022/01/05 00:29:18;;;;;;;5.05;2.00;;;;;;;;;;5053224;28;20550;-59
2022/01/05 00:31:44;;;;;;;8.20;2.25;;;;;;;;;;5053285;28;20053;-59
2022/01/05 00:34:10;;;;;;;4.60;2.20;;;;;;;;;;5052807;28;20095;-59
2022/01/05 00:36:37;;;;;;;6.50;2.92;;;;;;;;;;5053442;28;20044;-59
2022/01/05 00:39:04;;;;;;;7.65;2.40;;;;;;;;;;5052849;28;20053;-59
2022/01/05 00:41:31;;;;;;;7.22;2.53;;;;;;;;;;5051589;28;20057;-59
2022/01/05 00:43:57;;;;;;;6.53;2.38;;;;;;;;;;5052270;28;20068;-59
2022/01/05 00:46:23;;;;;;;7.97;2.63;;;;;;;;;;5052845;28;20068;-59
2022/01/05 00:48:49;;;;;;;5.60;2.70;;;;;;;;;;5051738;28;20053;-59
2022/01/05 00:51:16;;;;;;;6.72;2.33;;;;;;;;;;5052430;28;20484;-59
2022/01/05 00:53:43;;;;;;;5.15;2.45;;;;;;;;;;5052689;28;20068;-59
2022/01/05 00:56:10;;;;;;;6.03;2.47;;;;;;;;;;5051713;28;20044;-59
2022/01/05 00:58:36;;;;;;;7.35;2.92;;;;;;;;;;5052878;28;20091;-59
2022/01/05 01:01:03;;;;;;;7.30;2.53;;;;;;;;;;5051788;28;20107;-59
2022/01/05 01:03:29;;;;;;;6.15;2.38;;;;;;;;;;5052040;28;20044;-59
2022/01/05 01:05:55;;;;;;;5.57;2.33;;;;;;;;;;5052233;28;20053;-59
2022/01/05 01:08:21;;;;;;;5.88;2.20;;;;;;;;;;5052363;28;20071;-59
2022/01/05 01:10:49;;;;;;;8.00;2.88;;;;;;;;;;5051583;28;20098;-59
2022/01/05 01:13:17;;;;;;;6.47;2.20;;;;;;;;;;5052753;28;20048;-59
2022/01/05 01:15:43;;;;;;;7.78;2.15;;;;;;;;;;5051481;28;20542;-59
2022/01/05 01:18:09;;;;;;;7.40;2.28;;;;;;;;;;5052240;28;20099;-59
2022/01/05 01:20:36;;;;;;;5.20;2.40;;;;;;;;;;5052338;28;20041;-59
2022/01/05 01:23:02;;;;;;;7.28;2.03;;;;;;;;;;5051580;28;20075;-59
2022/01/05 01:25:28;;;;;;;6.15;1.77;;;;;;;;;;5052170;28;20049;-59
2022/01/05 01:27:54;;;;;;;5.38;1.98;;;;;;;;;;5052200;28;20049;-59
2022/01/05 01:30:22;;;;;;;6.07;1.85;;;;;;;;;;5051408;28;20115;-59
2022/01/05 01:32:48;;;;;;;7.82;2.13;;;;;;;;;;5051658;28;20072;-59
2022/01/05 01:35:14;;;;;;;7.20;1.90;;;;;;;;;;5052251;28;20095;-59
2022/01/05 01:37:41;;;;;;;6.03;1.92;;;;;;;;;;5051342;28;20052;-59
2022/01/05 01:40:08;;;;;;;6.75;1.85;;;;;;;;;;5052318;28;20055;-59
2022/01/05 01:42:34;;;;;;;5.75;1.70;;;;;;;;;;5052069;28;20102;-58
2022/01/05 01:45:01;;;;;;;8.15;2.05;;;;;;;;;;5050870;28;20053;-59
2022/01/05 01:47:28;;;;;;;6.03;2.10;;;;;;;;;;5051742;28;20515;-58
2022/01/05 01:49:54;;;;;;;5.90;1.83;;;;;;;;;;5051255;28;20094;-59
2022/01/05 01:52:21;;;;;;;4.70;1.58;;;;;;;;;;5050333;28;20126;-58
2022/01/05 01:54:47;;;;;;;7.13;2.05;;;;;;;;;;5051113;28;20049;-58
2022/01/05 01:57:14;;;;;;;7.35;2.00;;;;;;;;;;5050943;28;20049;-59
2022/01/05 01:59:40;;;;;;;5.88;1.67;;;;;;;;;;5050607;28;20502;-59
2022/01/05 02:02:08;;;;;;;5.07;1.75;;;;;;;;;;5050928;28;20087;-59
2022/01/05 02:04:36;;;;;;;6.90;1.95;;;;;;;;;;5050967;28;20088;-59
2022/01/05 02:07:03;;;;;;;8.65;1.85;;;;;;;;;;5050153;28;20111;-59
2022/01/05 02:09:29;;;;;;;5.97;1.67;;;;;;;;;;5050917;28;20045;-59
2022/01/05 02:11:55;;;;;;;4.72;1.70;;;;;;;;;;5050316;28;20554;-59
2022/01/05 02:14:22;;;;;;;4.68;1.67;;;;;;;;;;5050085;28;20703;-59
2022/01/05 02:16:48;;;;;;;6.32;1.77;;;;;;;;;;5050527;28;20057;-59
2022/01/05 02:19:14;;;;;;;6.43;1.60;;;;;;;;;;5050027;28;20570;-59
2022/01/05 02:21:43;;;;;;;5.55;2.00;;;;;;;;;;5050905;28;20045;-59
2022/01/05 02:24:10;;;;;;;5.93;1.90;;;;;;;;;;5050809;28;20483;-59
2022/01/05 02:26:36;;;;;;;9.68;1.95;;;;;;;;;;5050136;28;20045;-59
2022/01/05 02:29:02;;;;;;;7.68;2.15;;;;;;;;;;5050325;28;20049;-59
2022/01/05 02:31:29;;;;;;;7.75;1.70;;;;;;;;;;5050585;28;20053;-59
2022/01/05 02:33:55;;;;;;;5.70;2.20;;;;;;;;;;5049127;28;20079;-59
2022/01/05 02:36:21;;;;;;;7.00;2.10;;;;;;;;;;5050833;28;20049;-59
2022/01/05 02:38:50;;;;;;;6.20;1.75;;;;;;;;;;5050372;28;20127;-59
2022/01/05 02:41:16;;;;;;;7.45;2.10;;;;;;;;;;5049806;28;20057;-59
2022/01/05 02:43:43;;;;;;;4.90;1.90;;;;;;;;;;5050080;28;20071;-59
2022/01/05 02:46:10;;;;;;;9.35;2.28;;;;;;;;;;5050645;28;20041;-59
2022/01/05 02:48:36;;;;;;;5.45;2.00;;;;;;;;;;5049506;28;20502;-59
2022/01/05 02:51:03;;;;;;;7.93;2.13;;;;;;;;;;5050331;28;20056;-59
2022/01/05 02:53:29;;;;;;;7.95;1.73;;;;;;;;;;5050261;28;20666;-59
2022/01/05 02:55:57;;;;;;;8.05;1.77;;;;;;;;;;5049421;28;20053;-59
2022/01/05 02:58:23;;;;;;;5.15;1.60;;;;;;;;;;5049896;28;20052;-59
2022/01/05 03:00:49;;;;;;;5.43;1.90;;;;;;;;;;5050453;28;20045;-59
2022/01/05 03:03:15;;;;;;;7.55;1.85;;;;;;;;;;5049942;28;20670;-58
2022/01/05 03:05:42;;;;;;;6.13;1.50;;;;;;;;;;5050705;28;20508;-59
2022/01/05 03:08:09;;;;;;;9.68;1.85;;;;;;;;;;5050746;28;20045;-59
2022/01/05 03:10:35;;;;;;;7.60;2.10;;;;;;;;;;5049772;28;20557;-59
2022/01/05 03:13:03;;;;;;;7.80;2.22;;;;;;;;;;5050386;28;20049;-59
2022/01/05 03:15:29;;;;;;;5.88;1.90;;;;;;;;;;5049809;28;20451;-58
2022/01/05 03:17:55;;;;;;;7.55;1.80;;;;;;;;;;5050685;28;20077;-59
2022/01/05 03:20:22;;;;;;;6.78;1.75;;;;;;;;;;5050163;28;20049;-59
2022/01/05 03:22:49;;;;;;;6.28;1.85;;;;;;;;;;5049862;28;20050;-59
2022/01/05 03:25:16;;;;;;;8.38;2.10;;;;;;;;;;5052222;28;20412;-59
2022/01/05 03:27:43;;;;;;;6.15;2.08;;;;;;;;;;5054386;28;20045;-59
2022/01/05 03:30:12;;;;;;;8.00;1.73;;;;;;;;;;5053601;28;20545;-59
2022/01/05 03:32:49;;;;;;;7.93;2.00;;;;;;;;;;5054650;28;20041;-59
2022/01/05 03:35:15;;;;;;;12.38;1.90;;;;;;;;;;5054373;28;20073;-58
2022/01/05 03:37:41;;;;;;;6.45;2.08;;;;;;;;;;5053819;28;20103;-58
2022/01/05 03:40:08;;;;;;;5.30;1.55;;;;;;;;;;5054329;28;20052;-59
2022/01/05 03:42:34;;;;;;;8.68;2.13;;;;;;;;;;5054368;28;20045;-59
2022/01/05 03:45:01;;;;;;;10.18;2.25;;;;;;;;;;5053224;28;20342;-59
2022/01/05 03:47:28;;;;;;;9.27;2.25;;;;;;;;;;5054563;28;20044;-59
2022/01/05 03:49:54;;;;;;;9.05;1.85;;;;;;;;;;5053836;28;20098;-59
2022/01/05 03:52:21;;;;;;;10.07;2.17;;;;;;;;;;5053582;28;20041;-58
2022/01/05 03:54:47;;;;;;;8.90;2.40;;;;;;;;;;5053631;28;20044;-58
2022/01/05 03:57:13;;;;;;;9.85;2.53;;;;;;;;;;5054053;28;20044;-59
2022/01/05 03:59:39;;;;;;;10.50;2.42;;;;;;;;;;5052931;28;20041;-59
2022/01/05 04:02:05;;;;;;;7.20;2.03;;;;;;;;;;5053743;28;20045;-58
2022/01/05 04:04:33;;;;;;;7.72;2.03;;;;;;;;;;5053084;28;20106;-59
2022/01/05 04:06:59;;;;;;;8.25;2.08;;;;;;;;;;5053672;28;20095;-58
2022/01/05 04:09:25;;;;;;;7.28;1.98;;;;;;;;;;5053532;28;20127;-59
2022/01/05 04:11:52;;;;;;;7.63;2.40;;;;;;;;;;5052535;28;20057;-58
2022/01/05 04:14:18;;;;;;;7.35;1.90;;;;;;;;;;5053977;28;20053;-59
2022/01/05 04:16:44;;;;;;;10.82;2.42;;;;;;;;;;5053469;28;20049;-58
2022/01/05 04:19:10;;;;;;;9.32;2.47;;;;;;;;;;5052954;28;20091;-59
2022/01/05 04:21:38;;;;;;;9.55;1.88;;;;;;;;;;5053531;28;20045;-59
2022/01/05 04:24:04;;;;;;;10.27;2.33;;;;;;;;;;5053309;28;20040;-58
2022/01/05 04:26:31;;;;;;;7.20;2.05;;;;;;;;;;5052910;28;20045;-58
2022/01/05 04:28:57;;;;;;;8.23;2.28;;;;;;;;;;5053504;28;20049;-58
2022/01/05 04:31:23;;;;;;;7.78;1.90;;;;;;;;;;5053295;28;20053;-59
2022/01/05 04:33:49;;;;;;;10.30;1.88;;;;;;;;;;5052134;28;20439;-59
2022/01/05 04:36:16;;;;;;;6.43;1.90;;;;;;;;;;5053131;28;20048;-59
2022/01/05 04:38:43;;;;;;;8.57;2.30;;;;;;;;;;5053073;28;20053;-59
2022/01/05 04:41:10;;;;;;;8.57;2.10;;;;;;;;;;5052274;28;20487;-58
2022/01/05 04:43:36;;;;;;;8.05;2.22;;;;;;;;;;5053424;28;20041;-59
2022/01/05 04:46:02;;;;;;;9.20;2.58;;;;;;;;;;5052923;28;20056;-59
2022/01/05 04:48:29;;;;;;;6.50;2.10;;;;;;;;;;5052463;28;20075;-59
2022/01/05 04:50:55;;;;;;;10.35;2.28;;;;;;;;;;5052451;28;20526;-59
2022/01/05 04:53:21;;;;;;;8.13;2.60;;;;;;;;;;5053100;28;20075;-59
2022/01/05 04:55:49;;;;;;;9.18;2.30;;;;;;;;;;5051877;28;20045;-60
2022/01/05 04:58:15;;;;;;;9.77;2.35;;;;;;;;;;5053652;28;20107;-59
2022/01/05 05:00:41;;;;;;;8.05;2.00;;;;;;;;;;5052728;28;20491;-59
2022/01/05 05:03:08;;;;;;;9.82;2.33;;;;;;;;;;5052464;28;20053;-59
2022/01/05 05:05:35;;;;;;;7.47;2.50;;;;;;;;;;5052716;28;20056;-59
2022/01/05 05:08:02;;;;;;;8.45;2.58;;;;;;;;;;5051641;28;20049;-59
2022/01/05 05:10:28;;;;;;;8.98;2.60;;;;;;;;;;5053036;28;20147;-59
2022/01/05 05:12:56;;;;;;;8.80;2.20;;;;;;;;;;5052718;28;20059;-59
2022/01/05 05:15:22;;;;;;;11.20;2.13;;;;;;;;;;5051891;28;20106;-59
2022/01/05 05:17:48;;;;;;;10.85;2.20;;;;;;;;;;5052289;28;20049;-59
2022/01/05 05:20:14;;;;;;;9.25;2.10;;;;;;;;;;5052524;28;20098;-59
2022/01/05 05:22:41;;;;;;;8.90;2.50;;;;;;;;;;5051596;28;20041;-59
2022/01/05 05:25:07;;;;;;;7.53;2.33;;;;;;;;;;5052547;28;20056;-59
2022/01/05 05:27:34;;;;;;;7.25;2.20;;;;;;;;;;5052455;28;20094;-59
2022/01/05 05:30:02;;;;;;;6.88;2.17;;;;;;;;;;5051570;28;20045;-59
2022/01/05 05:32:28;;;;;;;11.15;2.53;;;;;;;;;;5052042;28;20048;-58
2022/01/05 05:34:54;;;;;;;9.40;2.17;;;;;;;;;;5052017;28;20479;-59
2022/01/05 05:37:20;;;;;;;11.93;2.70;;;;;;;;;;5051217;28;20053;-58
2022/01/05 05:39:46;;;;;;;9.30;2.50;;;;;;;;;;5051899;28;20045;-59
2022/01/05 05:42:13;;;;;;;9.35;2.13;;;;;;;;;;5052100;28;20045;-59
2022/01/05 05:44:39;;;;;;;12.35;2.80;;;;;;;;;;5051537;28;20048;-59
2022/01/05 05:47:07;;;;;;;13.38;3.17;;;;;;;;;;5051367;28;20577;-59
2022/01/05 05:49:33;;;;;;;13.70;3.28;;;;;;;;;;5051894;28;20130;-59
2022/01/05 05:51:59;;;;;;;12.45;2.53;;;;;;;;;;5050765;28;20053;-59
2022/01/05 05:54:25;;;;;;;11.18;2.22;;;;;;;;;;5051968;28;20045;-59
2022/01/05 05:56:51;;;;;;;11.55;2.40;;;;;;;;;;5051765;28;20045;-59
2022/01/05 05:59:18;;;;;;;9.20;2.65;;;;;;;;;;5050723;28;20483;-59
2022/01/05 06:01:44;;;;;;;10.00;2.67;;;;;;;;;;5051487;28;20491;-58
2022/01/05 06:04:11;;;;;;;9.40;2.20;;;;;;;;;;5050662;28;20483;-59
2022/01/05 06:06:38;;;;;;;9.73;2.70;;;;;;;;;;5051732;28;20549;-58
2022/01/05 06:09:04;;;;;;;9.45;2.67;;;;;;;;;;5051445;28;20099;-59
2022/01/05 06:11:30;;;;;;;14.07;2.65;;;;;;;;;;5050926;28;20049;-58
2022/01/05 06:13:56;;;;;;;10.88;2.50;;;;;;;;;;5051168;28;20165;-58
2022/01/05 06:16:24;;;;;;;11.32;2.92;;;;;;;;;;5051490;28;20049;-59
2022/01/05 06:18:50;;;;;;;8.88;2.20;;;;;;;;;;5050390;28;20041;-59
2022/01/05 06:21:17;;;;;;;12.85;2.95;;;;;;;;;;5051516;28;20045;-58
2022/01/05 06:23:44;;;;;;;10.82;2.90;;;;;;;;;;5051099;28;20045;-59
2022/01/05 06:26:10;;;;;;;9.80;2.55;;;;;;;;;;5050561;28;20102;-58
2022/01/05 06:28:36;;;;;;;11.93;3.17;;;;;;;;;;5051266;28;20167;-58
2022/01/05 06:31:02;;;;;;;11.40;3.13;;;;;;;;;;5050787;28;20052;-59
2022/01/05 06:33:28;;;;;;;9.27;3.22;;;;;;;;;;5050307;28;20483;-61
2022/01/05 06:35:55;;;;;;;9.38;2.38;;;;;;;;;;5039892;28;20049;-61
2022/01/05 06:38:22;;;;;;;11.60;3.05;;;;;;;;;;5030960;28;20049;-61
2022/01/05 06:40:48;;;;;;;13.02;2.72;;;;;;;;;;5030133;28;20053;-61
2022/01/05 06:43:15;;;;;;;10.07;2.90;;;;;;;;;;5031156;28;20046;-61
2022/01/05 06:45:41;;;;;;;10.88;2.60;;;;;;;;;;5049356;28;20041;-62
2022/01/05 06:48:07;;;;;;;15.68;2.63;;;;;;;;;;5050125;28;20044;-61
2022/01/05 06:50:33;;;;;;;10.50;2.70;;;;;;;;;;5051037;28;20052;-61
2022/01/05 06:52:59;;;;;;;15.75;3.72;;;;;;;;;;5050950;28;20045;-61
2022/01/05 06:55:27;;;;;;;12.30;2.85;;;;;;;;;;5050053;28;20037;-59
2022/01/05 06:57:53;;;;;;;15.27;2.85;;;;;;;;;;5041056;28;20381;-59
2022/01/05 07:00:21;;;;;;;15.88;3.55;;;;;;;;;;5044870;28;20048;-60
2022/01/05 07:02:47;;;;;;;21.52;4.55;;;;;;;;;;5054606;28;20053;-59
2022/01/05 07:05:14;;;;;;;17.33;3.75;;;;;;;;;;5054599;28;20079;-60
2022/01/05 07:07:40;;;;;;;15.27;3.53;;;;;;;;;;5054372;28;20049;-59
2022/01/05 07:10:07;;;;;;;13.77;3.60;;;;;;;;;;5054489;28;20041;-59
2022/01/05 07:12:35;;;;;;;17.58;3.70;;;;;;;;;;5054183;28;20585;-59
2022/01/05 07:15:01;;;;;;;16.73;3.17;;;;;;;;;;5053565;28;20061;-59
2022/01/05 07:17:28;;;;;;;13.10;3.08;;;;;;;;;;5054560;28;20483;-59
2022/01/05 07:19:54;;;;;;;9.25;2.83;;;;;;;;;;5054292;28;20041;-59
2022/01/05 07:22:20;;;;;;;14.82;3.42;;;;;;;;;;5053934;28;20048;-60
2022/01/05 07:24:47;;;;;;;16.25;3.60;;;;;;;;;;5054100;28;20044;-61
2022/01/05 07:27:13;;;;;;;11.70;2.67;;;;;;;;;;5053568;28;20110;-60
2022/01/05 07:29:40;;;;;;;11.75;2.90;;;;;;;;;;5053822;28;20041;-59
2022/01/05 07:32:07;;;;;;;10.13;3.13;;;;;;;;;;5054139;28;20475;-59
2022/01/05 07:34:33;;;;;;;14.48;3.25;;;;;;;;;;5054505;28;20053;-59
2022/01/05 07:36:59;;;;;;;10.50;3.08;;;;;;;;;;5053442;28;20049;-59
2022/01/05 07:39:26;;;;;;;13.13;3.30;;;;;;;;;;5054386;28;20098;-59
2022/01/05 07:41:52;;;;;;;13.23;3.25;;;;;;;;;;5054082;28;20371;-59
2022/01/05 07:44:19;;;;;;;14.30;3.50;;;;;;;;;;5053552;28;20095;-59
2022/01/05 07:46:46;;;;;;;11.32;2.63;;;;;;;;;;5054106;28;20060;-59
2022/01/05 07:49:13;;;;;;;11.57;3.17;;;;;;;;;;5054447;28;20045;-59
2022/01/05 07:51:39;;;;;;;16.02;3.30;;;;;;;;;;5053417;28;20094;-59
2022/01/05 07:54:05;;;;;;;17.50;4.03;;;;;;;;;;5054081;28;20091;-59
2022/01/05 07:56:32;;;;;;;14.93;3.28;;;;;;;;;;5053991;28;20045;-59
2022/01/05 07:58:58;;;;;;;15.18;3.33;;;;;;;;;;5053249;28;20049;-59
2022/01/05 08:01:27;;;;;;;17.58;3.92;;;;;;;;;;5053818;28;20389;-59
2022/01/05 08:03:55;;;;;;;9.80;3.13;;;;;;;;;;5052921;28;20048;-59
2022/01/05 08:06:21;;;;;;;14.30;3.17;;;;;;;;;;5053862;28;20090;-59
2022/01/05 08:08:48;;;;;;;12.93;3.05;;;;;;;;;;5053681;28;20045;-59
2022/01/05 08:11:14;;;;;;;10.63;2.60;;;;;;;;;;5052341;28;20045;-59
2022/01/05 08:13:41;;;;;;;11.77;2.42;;;;;;;;;;5054070;28;20106;-60
2022/01/05 08:16:07;;;;;;;13.52;3.08;;;;;;;;;;5054139;28;20045;-60
2022/01/05 08:18:33;;;;;;;14.75;3.65;;;;;;;;;;5053289;28;20056;-59
2022/01/05 08:21:01;;;;;;;20.17;3.35;;;;;;;;;;5053588;28;20045;-59
2022/01/05 08:23:28;;;;;;;14.70;3.28;;;;;;;;;;5053657;28;20045;-60
2022/01/05 08:25:54;;;;;;;15.55;3.47;;;;;;;;;;5052537;28;20083;-60
2022/01/05 08:28:21;;;;;;;12.60;2.97;;;;;;;;;;5053825;28;20053;-60
2022/01/05 08:30:47;;;;;;;13.65;3.40;;;;;;;;;;5053530;28;20171;-60
2022/01/05 08:33:14;;;;;;;17.00;3.75;;;;;;;;;;5052880;28;20347;-60
2022/01/05 08:35:40;;;;;;;20.27;3.88;;;;;;;;;;5053661;28;20045;-59
2022/01/05 08:38:08;;;;;;;20.27;3.97;;;;;;;;;;5053140;28;20107;-60
2022/01/05 08:40:35;;;;;;;13.13;2.90;;;;;;;;;;5052664;28;20075;-60
2022/01/05 08:43:03;;;;;;;13.77;3.20;;;;;;;;;;5053253;28;20053;-59
2022/01/05 08:45:29;;;;;;;17.33;4.13;;;;;;;;;;5053662;28;20075;-59
2022/01/05 08:47:56;;;;;;;13.57;3.05;;;;;;;;;;5052305;28;20048;-60
2022/01/05 08:50:25;;;;;;;16.40;3.38;;;;;;;;;;5053438;28;20056;-59
2022/01/05 08:52:52;;;;;;;13.77;3.67;;;;;;;;;;5052088;28;20060;-59
2022/01/05 08:55:21;;;;;;;15.85;3.47;;;;;;;;;;5053135;28;20053;-59
2022/01/05 08:57:48;;;;;;;14.35;3.00;;;;;;;;;;5052978;28;20040;-59
2022/01/05 09:00:15;;;;;;;12.15;3.05;;;;;;;;;;5052498;28;20041;-59
2022/01/05 09:02:41;;;;;;;9.98;3.30;;;;;;;;;;5052985;28;20120;-59
2022/01/05 09:05:08;;;;;;;10.52;2.88;;;;;;;;;;5052962;28;20491;-59
2022/01/05 09:07:35;;;;;;;15.18;3.45;;;;;;;;;;5052116;28;20049;-59
2022/01/05 09:10:03;;;;;;;14.93;3.28;;;;;;;;;;5053183;28;20107;-61
2022/01/05 09:12:31;;;;;;;15.88;3.17;;;;;;;;;;5053104;28;20077;-59
2022/01/05 09:14:57;;;;;;;14.30;2.75;;;;;;;;;;5051413;28;20075;-59
2022/01/05 09:17:24;;;;;;;12.85;2.72;;;;;;;;;;5052732;28;20480;-59
2022/01/05 09:19:51;;;;;;;12.07;3.17;;;;;;;;;;5052495;28;20099;-59
2022/01/05 09:22:17;;;;;;;11.48;2.88;;;;;;;;;;5051057;28;20487;-59
2022/01/05 09:24:43;;;;;;;14.02;3.33;;;;;;;;;;5052007;28;20454;-59
2022/01/05 09:27:09;;;;;;;12.52;2.33;;;;;;;;;;5053485;28;20095;-59
2022/01/05 09:29:37;;;;;;;14.93;3.40;;;;;;;;;;5052934;28;20044;-60
2022/01/05 09:32:04;;;;;;;13.82;3.45;;;;;;;;;;5052206;28;20052;-60
2022/01/05 09:34:31;;;;;;;16.88;4.10;;;;;;;;;;5052448;28;20067;-60
2022/01/05 09:37:01;;;;;;;14.45;3.15;;;;;;;;;;5051355;28;20051;-60
2022/01/05 09:42:11;;;;;;;15.32;3.53;;;;;;;;;;5051871;28;20431;-60
2022/01/05 09:44:41;;;;;;;14.32;3.97;;;;;;;;;;5052293;28;20068;-60
2022/01/05 09:47:23;;;;;;;12.88;2.95;;;;;;;;;;5052622;28;20098;-60
2022/01/05 09:49:53;;;;;;;11.45;2.67;;;;;;;;;;5051302;28;20045;-60
2022/01/05 09:52:20;;;;;;;11.63;3.20;;;;;;;;;;5052372;28;20136;-60
2022/01/05 09:54:46;;;;;;;13.70;3.60;;;;;;;;;;5051725;28;20049;-60
2022/01/05 09:57:14;;;;;;;14.70;3.50;;;;;;;;;;5051195;28;20792;-60
2022/01/05 09:59:42;;;;;;;11.15;3.25;;;;;;;;;;5054230;28;20045;-60
2022/01/05 10:02:08;;;;;;;16.38;4.30;;;;;;;;;;5072215;28;20118;-60
2022/01/05 10:04:35;;;;;;;13.15;3.28;;;;;;;;;;5070969;28;20453;-60
2022/01/05 10:07:01;;;;;;;18.83;3.95;;;;;;;;;;5071785;28;20109;-60
2022/01/05 10:09:28;;;;;;;16.00;3.97;;;;;;;;;;5061711;28;20131;-60
2022/01/05 10:11:55;;;;;;;16.33;3.33;;;;;;;;;;5050747;28;20068;-60
2022/01/05 10:14:21;;;;;;;17.65;3.97;;;;;;;;;;5051675;28;20071;-60
2022/01/05 10:17:02;;;;;;;18.25;4.05;;;;;;;;;;5051649;28;20107;-60
2022/01/05 10:19:29;;;;;;;16.63;3.67;;;;;;;;;;5051024;28;20468;-60
2022/01/05 10:21:56;;;;;;;15.80;3.63;;;;;;;;;;5051473;28;20575;-59
2022/01/05 10:24:39;;;;;;;20.75;4.40;;;;;;;;;;5050852;28;20049;-60
2022/01/05 10:27:06;;;;;;;16.30;3.78;;;;;;;;;;5051205;28;20519;-59
2022/01/05 10:29:32;;;;;;;19.08;3.83;;;;;;;;;;5051704;28;20045;-60
2022/01/05 10:31:59;;;;;;;18.58;3.72;;;;;;;;;;5050340;28;20049;-59
2022/01/05 10:34:28;;;;;;;23.73;3.95;;;;;;;;;;5051372;28;20049;-60
2022/01/05 10:36:54;;;;;;;18.63;3.67;;;;;;;;;;5051126;28;20052;-60
2022/01/05 10:39:28;;;;;;;19.60;4.40;;;;;;;;;;5050686;28;20047;-59
2022/01/05 10:41:54;;;;;;;17.52;4.20;;;;;;;;;;5051239;28;20049;-60
2022/01/05 10:44:21;;;;;;;18.35;4.38;;;;;;;;;;5051578;28;20041;-60
2022/01/05 10:46:48;;;;;;;20.23;4.07;;;;;;;;;;5050217;28;20044;-59
2022/01/05 10:49:25;;;;;;;24.13;4.15;;;;;;;;;;5051385;28;20060;-59
2022/01/05 10:51:53;;;;;;;18.52;3.95;;;;;;;;;;5050688;28;20099;-59
2022/01/05 10:54:20;;;;;;;16.30;3.90;;;;;;;;;;5050787;28;20049;-58
2022/01/05 10:56:47;;;;;;;17.25;4.05;;;;;;;;;;5050655;28;20446;-59
2022/01/05 10:59:15;;;;;;;24.27;4.20;;;;;;;;;;5051335;28;20037;-60
2022/01/05 11:01:41;;;;;;;26.15;4.85;;;;;;;;;;5050277;28;20049;-61
2022/01/05 11:04:17;;;;;;;24.85;5.25;;;;;;;;;;5051106;28;20049;-60
2022/01/05 11:06:58;;;;;;;20.85;4.88;;;;;;;;;;5050007;28;20049;-61
2022/01/05 11:09:25;;;;;;;24.45;4.97;;;;;;;;;;5051116;28;20567;-60
2022/01/05 11:11:52;;;;;;;25.90;5.25;;;;;;;;;;5050681;28;20041;-60
2022/01/05 11:14:19;;;;;;;21.58;4.22;;;;;;;;;;5050362;28;20067;-60
2022/01/05 11:16:46;;;;;;;18.33;3.78;;;;;;;;;;5050507;28;20053;-60
2022/01/05 11:19:13;;;;;;;19.85;4.57;;;;;;;;;;5051266;28;20060;-60
2022/01/05 11:21:40;;;;;;;21.05;4.22;;;;;;;;;;5050173;28;20045;-60
2022/01/05 11:24:08;;;;;;;22.48;4.93;;;;;;;;;;5050947;28;20053;-60
2022/01/05 11:26:35;;;;;;;20.95;4.95;;;;;;;;;;5051133;28;20088;-60
2022/01/05 11:29:03;;;;;;;16.27;3.63;;;;;;;;;;5049429;28;20102;-59
2022/01/05 11:31:29;;;;;;;22.73;4.78;;;;;;;;;;5047823;28;20535;-60
2022/01/05 11:33:56;;;;;;;21.52;4.38;;;;;;;;;;5050585;28;20099;-60
2022/01/05 11:36:23;;;;;;;20.02;3.70;;;;;;;;;;5049874;28;20041;-60
2022/01/05 11:38:49;;;;;;;21.30;4.72;;;;;;;;;;5050547;28;20152;-59
2022/01/05 11:41:17;;;;;;;22.30;4.65;;;;;;;;;;5050448;28;20503;-59
2022/01/05 11:43:44;;;;;;;17.55;4.00;;;;;;;;;;5049633;28;20106;-60
2022/01/05 11:46:15;;;;;;;15.60;3.78;;;;;;;;;;5051927;28;20045;-60
2022/01/05 11:48:57;;;;;;;16.58;4.55;;;;;;;;;;5053494;28;20099;-60
2022/01/05 11:51:29;;;;;;;19.98;3.60;;;;;;;;;;5054252;28;20483;-59
2022/01/05 11:54:12;;;;;;;16.70;3.88;;;;;;;;;;5053947;28;20052;-60
2022/01/05 11:56:42;;;;;;;20.00;3.30;;;;;;;;;;5053782;28;20126;-60
2022/01/05 11:59:18;;;;;;;12.52;3.22;;;;;;;;;;5054453;28;20041;-59
2022/01/05 12:01:56;;;;;;;19.17;3.70;;;;;;;;;;5053835;28;20052;-59
2022/01/05 12:04:22;;;;;;;16.27;3.88;;;;;;;;;;5052887;28;20053;-59
2022/01/05 12:07:09;;;;;;;20.08;4.20;;;;;;;;;;5051530;28;20044;-59
2022/01/05 12:09:37;;;;;;;21.77;4.15;;;;;;;;;;5033987;28;20041;-59
2022/01/05 12:12:25;;;;;;;20.13;4.47;;;;;;;;;;5049866;28;20045;-59
2022/01/05 12:14:51;;;;;;;19.20;3.80;;;;;;;;;;5051964;28;20048;-59
2022/01/05 12:17:18;;;;;;;17.98;3.97;;;;;;;;;;5053086;28;20102;-60
2022/01/05 12:20:18;;;;;;;16.27;3.63;;;;;;;;;;5053740;28;20065;-59
2022/01/05 12:22:44;;;;;;;20.17;3.78;;;;;;;;;;5053348;28;20401;-59
2022/01/05 12:25:16;;;;;;;16.45;3.63;;;;;;;;;;5052947;28;20041;-60
2022/01/05 12:27:54;;;;;;;22.27;4.15;;;;;;;;;;5053417;28;20048;-59
2022/01/05 12:30:42;;;;;;;17.13;3.58;;;;;;;;;;5054076;28;20099;-59
2022/01/05 12:33:10;;;;;;;17.67;3.95;;;;;;;;;;5032966;28;20049;-59
2022/01/05 12:35:44;;;;;;;21.92;4.00;;;;;;;;;;5033847;28;20041;-59
2022/01/05 12:38:10;;;;;;;16.55;3.75;;;;;;;;;;5032828;28;20045;-59
2022/01/05 12:40:38;;;;;;;18.38;4.05;;;;;;;;;;5033809;28;20049;-59
2022/01/05 12:43:23;;;;;;;22.42;4.18;;;;;;;;;;5033449;28;20048;-59
2022/01/05 12:45:52;;;;;;;23.10;3.85;;;;;;;;;;5032638;28;20445;-59
2022/01/05 12:48:39;;;;;;;20.08;3.72;;;;;;;;;;5033377;28;20049;-59
2022/01/05 12:51:22;;;;;;;18.85;3.80;;;;;;;;;;5033425;28;20053;-59
2022/01/05 12:53:52;;;;;;;15.77;3.80;;;;;;;;;;5031431;28;20053;-59
2022/01/05 12:56:19;;;;;;;22.58;4.53;;;;;;;;;;5033307;28;20136;-59
2022/01/05 12:58:45;;;;;;;16.30;4.20;;;;;;;;;;5031653;28;20049;-59
2022/01/05 13:01:13;;;;;;;14.80;3.22;;;;;;;;;;5053036;28;20077;-59
2022/01/05 13:03:40;;;;;;;19.75;4.03;;;;;;;;;;5053208;28;20107;-59
2022/01/05 13:06:13;;;;;;;12.68;3.33;;;;;;;;;;5051914;28;20147;-59
2022/01/05 13:08:45;;;;;;;15.38;3.83;;;;;;;;;;5053148;28;20469;-59
2022/01/05 13:11:11;;;;;;;17.90;3.85;;;;;;;;;;5052987;28;20052;-59
2022/01/05 13:13:41;;;;;;;19.92;4.43;;;;;;;;;;5052048;28;20107;-59
2022/01/05 13:16:08;;;;;;;20.10;4.70;;;;;;;;;;5053039;28;20098;-59
2022/01/05 13:18:35;;;;;;;24.52;4.68;;;;;;;;;;5052975;28;20051;-59
2022/01/05 13:21:02;;;;;;;19.02;4.47;;;;;;;;;;5051763;28;20279;-59
2022/01/05 13:23:28;;;;;;;19.67;3.83;;;;;;;;;;5052885;28;20107;-59
2022/01/05 13:25:54;;;;;;;19.77;3.92;;;;;;;;;;5052218;28;20114;-59
2022/01/05 13:28:20;;;;;;;15.68;3.60;;;;;;;;;;5052109;28;20103;-59
2022/01/05 13:30:46;;;;;;;20.55;3.97;;;;;;;;;;5052246;28;20454;-59
2022/01/05 13:33:15;;;;;;;24.77;4.30;;;;;;;;;;5052608;28;20045;-59
2022/01/05 13:35:43;;;;;;;16.95;4.05;;;;;;;;;;5051457;28;20044;-60
2022/01/05 13:38:12;;;;;;;20.27;4.15;;;;;;;;;;5052449;28;20041;-59
2022/01/05 13:40:39;;;;;;;18.42;3.85;;;;;;;;;;5052189;28;20139;-60
2022/01/05 13:43:06;;;;;;;26.50;3.92;;;;;;;;;;5050455;28;20052;-59
2022/01/05 13:45:34;;;;;;;23.05;3.90;;;;;;;;;;5052045;28;20503;-59
2022/01/05 13:48:01;;;;;;;18.92;3.72;;;;;;;;;;5052108;28;20045;-60
2022/01/05 13:50:28;;;;;;;19.10;3.50;;;;;;;;;;5051213;28;20048;-59
2022/01/05 13:52:58;;;;;;;16.05;3.63;;;;;;;;;;5051691;28;20045;-59
2022/01/05 13:55:25;;;;;;;14.95;4.07;;;;;;;;;;5050940;28;20114;-59
2022/01/05 13:58:01;;;;;;;13.10;3.30;;;;;;;;;;5051765;28;20496;-60
2022/01/05 14:00:28;;;;;;;14.73;3.40;;;;;;;;;;5051930;28;20090;-60
2022/01/05 14:02:54;;;;;;;15.07;3.67;;;;;;;;;;5051107;28;20045;-61
2022/01/05 14:05:20;;;;;;;18.27;3.53;;;;;;;;;;5051592;28;20053;-61
2022/01/05 14:07:47;;;;;;;17.08;3.65;;;;;;;;;;5051501;28;20049;-61
2022/01/05 14:10:15;;;;;;;19.27;3.80;;;;;;;;;;5050658;28;20052;-59
2022/01/05 14:12:43;;;;;;;21.23;3.95;;;;;;;;;;5051760;28;20049;-60
2022/01/05 14:15:10;;;;;;;16.58;4.25;;;;;;;;;;5051690;28;20106;-60
2022/01/05 14:17:38;;;;;;;20.85;3.55;;;;;;;;;;5050967;28;20420;-59
2022/01/05 14:20:15;;;;;;;14.52;3.38;;;;;;;;;;5051279;28;20445;-59
2022/01/05 14:22:41;;;;;;;20.55;3.70;;;;;;;;;;5051642;28;20049;-60
2022/01/05 14:25:09;;;;;;;18.60;3.75;;;;;;;;;;5050838;28;20045;-60
2022/01/05 14:27:38;;;;;;;17.98;3.78;;;;;;;;;;5051394;28;20041;-60
2022/01/05 14:30:05;;;;;;;17.05;4.03;;;;;;;;;;5051327;28;20049;-60
2022/01/05 14:32:32;;;;;;;18.90;4.13;;;;;;;;;;5050444;28;20048;-59
2022/01/05 14:35:00;;;;;;;18.42;4.00;;;;;;;;;;5051200;28;20159;-59
2022/01/05 14:37:26;;;;;;;17.08;3.75;;;;;;;;;;5051353;28;20128;-59
2022/01/05 14:39:54;;;;;;;18.75;3.90;;;;;;;;;;5050924;28;20049;-59
2022/01/05 14:42:21;;;;;;;17.08;4.15;;;;;;;;;;5051400;28;20067;-59